Time;durP1;ratioP1;P1;durP2;ratioP2;P2;SDS_P1;SDS_P2;PMS_P1;PMS_P2;Temp;Humidity;BMP_temperature;BMP_pressure;BME280_temperature;BME280_humidity;BME280_pressure;Samples;Min_cycle;Max_cycle;Signal;HPM_P1;HPM_P2
2023/09/21 00:02:00;;;;;;;3.13;2.10;;;18.00;99.90;;;;;;7373341;19;20026;-67
2023/09/21 00:04:27;;;;;;;5.65;3.08;;;18.00;99.90;;;;;;7369291;19;20022;-60
2023/09/21 00:06:54;;;;;;;8.00;2.25;;;18.00;99.90;;;;;;7376587;19;20015;-59
2023/09/21 00:09:40;;;;;;;6.80;2.70;;;17.90;99.90;;;;;;7371816;19;20015;-59
2023/09/21 00:12:09;;;;;;;7.10;2.72;;;17.90;99.90;;;;;;7376066;19;20365;-66
2023/09/21 00:14:35;;;;;;;4.80;2.50;;;17.90;99.90;;;;;;7373108;19;20023;-69
2023/09/21 00:17:03;;;;;;;5.45;2.47;;;17.90;99.90;;;;;;7374703;19;20516;-68
2023/09/21 00:19:32;;;;;;;6.32;2.42;;;17.90;99.90;;;;;;7374404;19;20014;-67
2023/09/21 00:22:18;;;;;;;5.50;2.35;;;17.80;99.90;;;;;;7372613;19;20018;-68
2023/09/21 00:25:07;;;;;;;4.93;3.45;;;17.90;99.90;;;;;;7373777;19;20018;-68
2023/09/21 00:27:33;;;;;;;4.95;2.20;;;17.90;99.90;;;;;;7373393;19;20014;-68
2023/09/21 00:30:04;;;;;;;5.07;2.70;;;18.00;99.90;;;;;;7374991;19;20038;-68
2023/09/21 00:32:30;;;;;;;6.25;3.05;;;18.00;99.90;;;;;;7373919;19;20026;-69
2023/09/21 00:35:18;;;;;;;6.55;2.38;;;18.00;99.90;;;;;;7372532;19;20039;-69
2023/09/21 00:38:09;;;;;;;4.40;2.40;;;18.00;99.90;;;;;;7374807;19;20018;-68
2023/09/21 00:40:38;;;;;;;4.35;2.58;;;18.00;99.90;;;;;;7372408;19;20015;-68
2023/09/21 00:43:09;;;;;;;5.15;2.67;;;17.90;99.90;;;;;;7375951;19;20025;-68
2023/09/21 00:45:37;;;;;;;4.65;2.22;;;17.90;99.90;;;;;;7369749;19;20470;-68
2023/09/21 00:48:26;;;;;;;7.32;2.67;;;17.90;99.90;;;;;;7372788;19;20018;-67
2023/09/21 00:51:13;;;;;;;8.52;2.35;;;17.90;99.90;;;;;;7370849;19;20062;-68
2023/09/21 00:53:44;;;;;;;5.25;2.55;;;17.80;99.90;;;;;;7367080;19;20070;-68
2023/09/21 00:56:12;;;;;;;5.13;2.85;;;17.80;99.90;;;;;;7375340;19;20032;-67
2023/09/21 00:58:44;;;;;;;4.25;2.17;;;17.90;99.90;;;;;;7373677;19;21044;-68
2023/09/21 01:01:23;;;;;;;7.30;2.83;;;17.80;99.90;;;;;;7367861;19;20387;-68
2023/09/21 01:03:52;;;;;;;4.53;2.50;;;17.90;99.90;;;;;;7376282;19;20465;-68
2023/09/21 01:06:18;;;;;;;4.22;2.30;;;17.90;99.90;;;;;;7371655;19;20024;-67
2023/09/21 01:08:46;;;;;;;5.32;2.55;;;17.80;99.90;;;;;;7369738;19;20026;-68
2023/09/21 01:11:14;;;;;;;4.47;2.08;;;17.80;99.90;;;;;;7371618;19;20018;-68
2023/09/21 01:13:44;;;;;;;5.78;2.92;;;17.80;99.90;;;;;;7375671;19;20010;-68
2023/09/21 01:16:15;;;;;;;5.30;2.30;;;17.90;99.90;;;;;;7365212;19;20521;-68
2023/09/21 01:19:01;;;;;;;4.50;1.88;;;17.90;99.90;;;;;;7371309;19;20022;-68
2023/09/21 01:21:54;;;;;;;4.65;2.38;;;17.90;99.90;;;;;;7372828;19;20014;-69
2023/09/21 01:24:23;;;;;;;4.70;2.70;;;18.00;99.90;;;;;;7371552;19;20018;-68
2023/09/21 01:27:09;;;;;;;4.57;2.67;;;17.90;99.90;;;;;;7373644;19;20082;-68
2023/09/21 01:29:35;;;;;;;5.45;2.80;;;18.00;99.90;;;;;;7371638;19;20073;-67
2023/09/21 01:32:23;;;;;;;8.77;2.35;;;18.10;99.90;;;;;;7371018;19;20081;-68
2023/09/21 01:34:49;;;;;;;4.15;2.10;;;18.10;99.90;;;;;;7368166;19;20024;-67
2023/09/21 01:37:15;;;;;;;8.07;5.45;;;18.10;99.90;;;;;;7371520;19;20046;-67
2023/09/21 01:39:43;;;;;;;4.75;2.20;;;18.20;99.90;;;;;;7372764;19;20022;-67
2023/09/21 01:42:10;;;;;;;4.80;2.17;;;18.20;99.90;;;;;;7372898;19;20051;-67
2023/09/21 01:44:36;;;;;;;4.05;2.58;;;18.20;99.90;;;;;;7370041;19;20488;-68
2023/09/21 01:47:02;;;;;;;5.32;3.15;;;18.20;99.90;;;;;;7366995;19;20047;-68
2023/09/21 01:49:49;;;;;;;4.57;2.28;;;18.10;99.90;;;;;;7373661;19;20019;-67
2023/09/21 01:52:16;;;;;;;4.35;2.10;;;18.20;99.90;;;;;;7369266;19;20019;-68
2023/09/21 01:55:10;;;;;;;6.15;2.42;;;18.20;99.90;;;;;;7371468;19;20021;-68
2023/09/21 01:57:39;;;;;;;4.78;2.08;;;18.30;99.90;;;;;;7373238;19;20018;-67
2023/09/21 02:00:27;;;;;;;6.75;2.72;;;18.30;99.90;;;;;;7366631;19;20022;-68
2023/09/21 02:03:19;;;;;;;6.25;3.30;;;18.30;99.90;;;;;;7369069;19;20055;-68
2023/09/21 02:05:47;;;;;;;5.05;2.20;;;18.40;99.90;;;;;;7367688;19;20470;-68
2023/09/21 02:08:34;;;;;;;4.03;1.65;;;18.30;99.90;;;;;;7369620;19;20029;-68
2023/09/21 02:11:00;;;;;;;4.63;2.10;;;18.20;99.90;;;;;;7365550;19;20368;-67
2023/09/21 02:13:26;;;;;;;5.97;4.15;;;18.20;99.90;;;;;;7358661;19;20034;-68
2023/09/21 02:15:53;;;;;;;4.70;2.35;;;18.10;99.90;;;;;;7372240;19;20022;-67
2023/09/21 02:18:19;;;;;;;6.15;2.30;;;18.10;99.90;;;;;;7367830;19;20028;-68
2023/09/21 02:21:09;;;;;;;5.57;2.65;;;18.10;99.90;;;;;;7370244;19;20030;-68
2023/09/21 02:23:37;;;;;;;4.88;2.28;;;18.10;99.90;;;;;;7364988;19;20022;-68
2023/09/21 02:26:23;;;;;;;4.22;2.50;;;18.00;99.90;;;;;;7368730;19;20022;-68
2023/09/21 02:28:49;;;;;;;4.95;2.08;;;17.90;99.90;;;;;;7376661;19;20549;-67
2023/09/21 02:31:16;;;;;;;5.47;2.47;;;17.90;99.90;;;;;;7373517;19;20025;-68
2023/09/21 02:33:42;;;;;;;4.47;2.28;;;17.90;99.90;;;;;;7372915;19;20031;-69
2023/09/21 02:36:14;;;;;;;4.88;1.95;;;17.90;99.90;;;;;;7374890;19;20033;-66
2023/09/21 02:38:41;;;;;;;4.68;2.80;;;17.90;99.90;;;;;;7375582;19;20018;-67
2023/09/21 02:41:27;;;;;;;5.82;1.90;;;17.90;99.90;;;;;;7376353;19;20018;-68
2023/09/21 02:43:53;;;;;;;6.38;2.38;;;17.90;99.90;;;;;;7375162;19;20371;-67
2023/09/21 02:46:40;;;;;;;5.22;3.30;;;17.90;99.90;;;;;;7373339;19;20025;-67
2023/09/21 02:49:26;;;;;;;7.80;3.33;;;17.90;99.90;;;;;;7375514;19;20448;-67
2023/09/21 02:51:52;;;;;;;4.03;2.15;;;17.90;99.90;;;;;;7366156;19;20492;-67
2023/09/21 02:54:19;;;;;;;5.15;2.08;;;17.90;99.90;;;;;;7371570;19;20476;-67
2023/09/21 02:56:47;;;;;;;4.68;2.40;;;17.90;99.90;;;;;;7365184;19;20365;-67
2023/09/21 02:59:34;;;;;;;5.78;2.22;;;17.90;99.90;;;;;;7370192;19;21181;-67
2023/09/21 03:02:01;;;;;;;7.45;2.45;;;17.90;99.90;;;;;;7371231;19;20383;-67
2023/09/21 03:04:27;;;;;;;4.38;2.20;;;17.90;99.90;;;;;;7376321;19;20021;-68
2023/09/21 03:06:55;;;;;;;4.90;2.50;;;17.90;99.90;;;;;;7375282;19;20500;-68
2023/09/21 03:09:22;;;;;;;6.05;2.70;;;17.80;99.90;;;;;;7372051;19;20022;-68
2023/09/21 03:11:49;;;;;;;5.25;2.20;;;17.80;99.90;;;;;;7368977;19;20022;-67
2023/09/21 03:14:15;;;;;;;4.82;1.80;;;17.80;99.90;;;;;;7370387;19;20029;-68
2023/09/21 03:16:43;;;;;;;7.30;2.10;;;17.70;99.90;;;;;;7373165;19;20412;-60
2023/09/21 03:19:30;;;;;;;4.13;2.15;;;17.80;99.90;;;;;;7371414;19;20019;-60
2023/09/21 03:22:17;;;;;;;4.18;2.15;;;17.70;99.90;;;;;;7371130;19;20592;-68
2023/09/21 03:25:25;;;;;;;3.53;1.75;;;17.80;99.90;;;;;;7371496;19;20504;-59
2023/09/21 03:27:52;;;;;;;5.63;2.15;;;17.70;99.90;;;;;;7372918;19;20492;-67
2023/09/21 03:30:42;;;;;;;4.50;2.22;;;17.80;99.90;;;;;;7367086;19;20364;-60
2023/09/21 03:33:10;;;;;;;3.78;2.28;;;17.70;99.90;;;;;;7371509;19;20018;-59
2023/09/21 03:35:37;;;;;;;5.22;3.03;;;17.60;99.90;;;;;;7370675;19;20021;-60
2023/09/21 03:38:24;;;;;;;6.30;2.42;;;17.50;99.90;;;;;;7372029;19;20039;-60
2023/09/21 03:40:57;;;;;;;5.32;2.88;;;17.50;99.90;;;;;;7370636;19;20417;-60
2023/09/21 03:43:23;;;;;;;7.28;2.45;;;17.40;99.90;;;;;;7369637;19;20065;-60
2023/09/21 03:45:50;;;;;;;4.53;2.60;;;17.50;99.90;;;;;;7370625;19;20054;-60
2023/09/21 03:48:18;;;;;;;3.67;2.08;;;17.50;99.90;;;;;;7374471;19;20504;-59
2023/09/21 03:50:44;;;;;;;8.25;2.42;;;17.50;99.90;;;;;;7371406;19;20400;-59
2023/09/21 03:53:33;;;;;;;4.50;2.22;;;17.60;99.90;;;;;;7369002;19;20026;-59
2023/09/21 03:56:01;;;;;;;6.57;2.30;;;17.50;99.90;;;;;;7371904;19;20033;-59
2023/09/21 03:58:28;;;;;;;7.20;2.80;;;17.50;99.90;;;;;;7369026;19;20025;-59
2023/09/21 04:00:57;;;;;;;5.32;2.42;;;17.50;99.90;;;;;;7374841;19;20077;-60
2023/09/21 04:03:43;;;;;;;3.97;2.25;;;17.50;99.90;;;;;;7369568;19;20366;-59
2023/09/21 04:06:16;;;;;;;6.88;2.45;;;17.50;99.90;;;;;;7370691;19;20492;-61
2023/09/21 04:08:44;;;;;;;4.38;2.38;;;17.60;99.90;;;;;;7368580;19;20022;-59
2023/09/21 04:11:30;;;;;;;5.05;2.70;;;17.50;99.90;;;;;;7369280;19;20015;-59
2023/09/21 04:13:57;;;;;;;4.55;2.40;;;17.60;99.90;;;;;;7372111;19;20454;-60
2023/09/21 04:16:24;;;;;;;4.28;2.22;;;17.60;99.90;;;;;;7370113;19;20027;-59
2023/09/21 04:19:10;;;;;;;4.60;2.40;;;17.50;99.90;;;;;;7373252;19;20018;-59
2023/09/21 04:21:56;;;;;;;5.63;2.30;;;17.50;99.90;;;;;;7372382;19;20568;-68
2023/09/21 04:24:23;;;;;;;4.20;2.53;;;17.50;99.90;;;;;;7365033;19;20021;-68
2023/09/21 04:27:09;;;;;;;4.32;2.05;;;17.50;99.90;;;;;;7372066;19;20018;-67
2023/09/21 04:29:36;;;;;;;4.07;2.40;;;17.50;99.90;;;;;;7365426;19;20581;-59
2023/09/21 04:32:02;;;;;;;3.78;2.08;;;17.40;99.90;;;;;;7369600;19;20480;-59
2023/09/21 04:34:28;;;;;;;4.30;2.28;;;17.40;99.90;;;;;;7365727;19;20028;-60
2023/09/21 04:36:55;;;;;;;6.30;2.47;;;17.40;99.90;;;;;;7368766;19;20363;-60
2023/09/21 04:39:22;;;;;;;7.45;2.47;;;17.40;99.90;;;;;;7366477;19;20110;-68
2023/09/21 04:41:49;;;;;;;4.45;2.30;;;17.30;99.90;;;;;;7367974;19;20026;-68
2023/09/21 04:44:16;;;;;;;4.72;2.60;;;17.30;99.90;;;;;;7366049;19;20015;-67
2023/09/21 04:47:03;;;;;;;4.78;2.58;;;17.40;99.90;;;;;;7368517;19;20014;-67
2023/09/21 04:49:29;;;;;;;5.93;1.83;;;17.40;99.90;;;;;;7367979;19;20033;-67
2023/09/21 04:51:55;;;;;;;5.30;2.35;;;17.30;99.90;;;;;;7365884;19;20469;-67
2023/09/21 04:54:22;;;;;;;6.22;3.50;;;17.30;99.90;;;;;;7365847;19;20015;-59
2023/09/21 04:56:51;;;;;;;5.40;2.40;;;17.30;99.90;;;;;;7370520;19;20020;-59
2023/09/21 04:59:38;;;;;;;3.75;1.95;;;17.30;99.90;;;;;;7362395;19;20024;-59
2023/09/21 05:02:05;;;;;;;4.05;2.40;;;17.30;99.90;;;;;;7364153;19;20018;-60
2023/09/21 05:04:31;;;;;;;6.00;2.50;;;17.50;99.90;;;;;;7365776;19;20061;-59
2023/09/21 05:07:18;;;;;;;5.60;2.50;;;17.50;99.90;;;;;;7367953;19;20018;-59
2023/09/21 05:09:46;;;;;;;4.50;2.25;;;17.50;99.90;;;;;;7369909;19;20444;-59
2023/09/21 05:12:13;;;;;;;4.93;3.13;;;17.60;99.90;;;;;;7370597;19;20018;-59
2023/09/21 05:14:39;;;;;;;3.95;2.25;;;17.70;99.90;;;;;;7368011;19;20030;-58
2023/09/21 05:17:06;;;;;;;5.57;2.28;;;17.70;99.90;;;;;;7371093;19;20110;-58
2023/09/21 05:19:33;;;;;;;5.88;2.40;;;17.70;99.90;;;;;;7367210;19;20018;-58
2023/09/21 05:22:04;;;;;;;4.22;2.25;;;17.80;99.90;;;;;;7371902;19;20478;-66
2023/09/21 05:24:32;;;;;;;4.35;2.50;;;17.80;99.90;;;;;;7368595;19;20029;-67
2023/09/21 05:26:59;;;;;;;5.03;2.40;;;17.90;99.90;;;;;;7373227;19;20022;-58
2023/09/21 05:29:45;;;;;;;4.45;2.13;;;18.00;99.90;;;;;;7368661;19;20782;-60
2023/09/21 05:32:11;;;;;;;4.65;2.17;;;18.00;99.90;;;;;;7375156;19;20523;-59
2023/09/21 05:34:58;;;;;;;3.25;1.73;;;18.00;99.90;;;;;;7373225;19;20022;-59
2023/09/21 05:37:24;;;;;;;3.95;1.70;;;18.10;99.90;;;;;;7367672;19;20022;-61
2023/09/21 05:39:51;;;;;;;4.35;2.25;;;18.10;99.90;;;;;;7373050;19;20029;-59
2023/09/21 05:42:39;;;;;;;4.13;2.03;;;18.10;99.90;;;;;;7365087;19;20657;-59
2023/09/21 05:45:25;;;;;;;4.43;2.35;;;18.10;99.90;;;;;;7366092;19;20575;-58
2023/09/21 05:47:51;;;;;;;4.90;2.10;;;18.20;99.90;;;;;;7368592;19;20087;-60
2023/09/21 05:50:37;;;;;;;9.93;7.25;;;18.20;99.90;;;;;;7368103;19;20357;-67
2023/09/21 05:53:04;;;;;;;5.15;2.60;;;18.20;99.90;;;;;;7369235;19;20107;-67
2023/09/21 05:55:50;;;;;;;6.38;2.22;;;18.20;99.90;;;;;;7367300;19;20403;-60
2023/09/21 05:58:36;;;;;;;4.50;2.20;;;18.20;99.90;;;;;;7370103;19;20057;-59
2023/09/21 06:01:02;;;;;;;5.03;2.03;;;18.30;99.90;;;;;;7371834;19;20580;-60
2023/09/21 06:03:29;;;;;;;5.38;2.53;;;18.30;99.90;;;;;;7367120;19;20073;-61
2023/09/21 06:06:19;;;;;;;6.18;2.33;;;18.30;99.90;;;;;;7378967;19;20477;-65
2023/09/21 06:08:46;;;;;;;6.55;2.28;;;18.30;99.90;;;;;;7372064;19;20045;-60
2023/09/21 06:11:13;;;;;;;6.00;2.25;;;18.30;99.90;;;;;;7367992;19;20522;-67
2023/09/21 06:13:59;;;;;;;5.25;2.90;;;18.30;99.90;;;;;;7369283;19;20026;-67
2023/09/21 06:16:46;;;;;;;4.18;2.03;;;18.40;99.90;;;;;;7370878;19;20074;-59
2023/09/21 06:19:37;;;;;;;6.45;2.80;;;18.30;99.90;;;;;;7365312;19;20501;-67
2023/09/21 06:22:04;;;;;;;;;;;18.40;99.90;;;;;;7374180;19;20025;-67
2023/09/21 06:24:50;;;;;;;6.35;2.60;;;18.40;99.90;;;;;;7369292;19;20388;-59
2023/09/21 06:27:41;;;;;;;5.53;2.40;;;18.50;99.90;;;;;;7368295;19;20088;-67
2023/09/21 06:30:27;;;;;;;5.63;2.70;;;18.60;99.90;;;;;;7368311;19;20018;-66
2023/09/21 06:33:14;;;;;;;5.80;2.70;;;18.60;99.90;;;;;;7369664;19;20025;-68
2023/09/21 06:35:42;;;;;;;9.15;5.80;;;18.60;99.90;;;;;;7367517;19;20041;-67
2023/09/21 06:38:08;;;;;;;4.10;2.45;;;18.60;99.90;;;;;;7363333;19;20038;-66
2023/09/21 06:40:36;;;;;;;8.43;4.72;;;18.60;99.90;;;;;;7370997;19;20344;-66
2023/09/21 06:43:26;;;;;;;7.07;3.17;;;18.60;99.90;;;;;;7363842;19;20113;-66
2023/09/21 06:45:52;;;;;;;6.20;2.75;;;18.60;99.90;;;;;;7365363;19;20015;-68
2023/09/21 06:48:19;;;;;;;4.55;2.97;;;18.60;99.90;;;;;;7366891;19;20014;-67
2023/09/21 06:50:45;;;;;;;5.20;2.40;;;18.60;99.90;;;;;;7366573;19;20018;-59
2023/09/21 06:53:11;;;;;;;6.43;3.63;;;18.60;99.90;;;;;;7365324;19;20620;-59
2023/09/21 06:55:38;;;;;;;5.82;2.13;;;18.60;99.90;;;;;;7365720;19;20039;-59
2023/09/21 06:58:07;;;;;;;9.65;7.45;;;18.60;99.90;;;;;;7366996;19;20014;-59
2023/09/21 07:00:54;;;;;;;7.72;2.80;;;18.60;99.90;;;;;;7368393;19;20015;-60
2023/09/21 07:03:40;;;;;;;5.45;3.30;;;18.60;99.90;;;;;;7363260;19;20496;-61
2023/09/21 07:06:06;;;;;;;9.05;4.47;;;18.60;99.90;;;;;;7368147;19;20404;-58
2023/09/21 07:08:32;;;;;;;5.45;2.67;;;18.60;99.90;;;;;;7365533;19;20073;-58
2023/09/21 07:11:19;;;;;;;5.15;2.80;;;18.50;99.90;;;;;;7362059;19;20488;-58
2023/09/21 07:14:06;;;;;;;42.88;38.40;;;18.50;99.90;;;;;;7368338;19;20608;-57
2023/09/21 07:16:33;;;;;;;6.32;3.85;;;18.50;99.90;;;;;;7371623;19;20511;-58
2023/09/21 07:18:59;;;;;;;5.15;2.90;;;18.60;99.90;;;;;;7374166;19;20015;-58
2023/09/21 07:21:46;;;;;;;4.25;2.58;;;18.60;99.90;;;;;;7374840;19;20357;-58
2023/09/21 07:24:32;;;;;;;10.00;6.00;;;18.60;99.90;;;;;;7371998;19;20018;-59
2023/09/21 07:26:58;;;;;;;87.38;78.57;;;18.60;99.90;;;;;;7373058;19;20046;-59
2023/09/21 07:29:26;;;;;;;20.38;18.17;;;18.70;99.90;;;;;;7373554;19;20022;-58
2023/09/21 07:31:53;;;;;;;14.90;12.50;;;18.80;99.90;;;;;;7369376;19;20022;-59
2023/09/21 07:34:20;;;;;;;7.72;3.17;;;18.90;99.90;;;;;;7381852;19;20014;-65
2023/09/21 07:37:10;;;;;;;4.47;2.58;;;18.90;99.90;;;;;;7390067;19;20011;-63
2023/09/21 07:39:36;;;;;;;4.57;2.72;;;19.10;99.90;;;;;;7377197;19;20359;-63
2023/09/21 07:42:04;;;;;;;5.72;2.90;;;19.10;99.90;;;;;;7389864;19;20018;-67
2023/09/21 07:44:30;;;;;;;5.60;2.05;;;19.20;99.90;;;;;;7382837;19;20362;-60
2023/09/21 07:46:57;;;;;;;7.25;2.92;;;19.20;99.90;;;;;;7382544;19;20081;-68
2023/09/21 07:49:47;;;;;;;4.60;3.00;;;19.30;99.90;;;;;;7392345;19;20478;-67
2023/09/21 07:52:34;;;;;;;6.03;3.42;;;19.30;99.90;;;;;;7390320;19;20049;-66
2023/09/21 07:55:20;;;;;;;6.88;3.50;;;19.30;99.90;;;;;;7377406;19;20787;-66
2023/09/21 07:57:47;;;;;;;5.15;3.03;;;19.20;99.90;;;;;;7386518;19;20018;-66
2023/09/21 08:00:33;;;;;;;5.78;3.03;;;19.00;99.90;;;;;;7375731;19;20022;-65
2023/09/21 08:03:00;;;;;;;5.68;3.20;;;18.80;99.90;;;;;;7375790;19;20474;-56
2023/09/21 08:05:32;;;;;;;5.15;2.58;;;18.70;99.90;;;;;;7373830;19;20014;-65
2023/09/21 08:07:58;;;;;;;8.50;2.90;;;18.60;99.90;;;;;;7378112;19;20053;-57
2023/09/21 08:10:52;;;;;;;5.10;2.70;;;18.50;99.90;;;;;;7372924;19;20600;-57
2023/09/21 08:13:39;;;;;;;5.97;2.85;;;18.50;99.90;;;;;;7374981;19;20047;-57
2023/09/21 08:16:08;;;;;;;8.98;3.20;;;18.50;99.90;;;;;;7373062;19;20036;-57
2023/09/21 08:18:38;;;;;;;6.30;3.22;;;18.40;99.90;;;;;;7374029;19;20051;-57
2023/09/21 08:21:04;;;;;;;4.47;3.17;;;18.40;99.90;;;;;;7372421;19;20018;-58
2023/09/21 08:23:51;;;;;;;5.32;3.03;;;18.30;99.90;;;;;;7375156;19;20022;-57
2023/09/21 08:26:37;;;;;;;7.72;3.25;;;18.30;99.90;;;;;;7371311;19;20023;-58
2023/09/21 08:29:23;;;;;;;5.60;3.25;;;18.30;99.90;;;;;;7367686;19;20014;-58
2023/09/21 08:31:50;;;;;;;5.45;2.88;;;18.20;99.90;;;;;;7371024;19;20533;-57
2023/09/21 08:34:17;;;;;;;7.60;3.17;;;18.30;99.90;;;;;;7368619;19;20066;-57
2023/09/21 08:37:05;;;;;;;5.15;3.35;;;18.20;99.90;;;;;;7370373;19;20018;-57
2023/09/21 08:39:51;;;;;;;6.20;3.60;;;18.30;99.90;;;;;;7369358;19;20489;-57
2023/09/21 08:42:37;;;;;;;8.52;3.55;;;18.40;99.90;;;;;;7369228;19;20492;-58
2023/09/21 08:45:24;;;;;;;5.50;3.47;;;18.40;99.90;;;;;;7369593;19;20022;-57
2023/09/21 08:47:50;;;;;;;3.75;2.80;;;18.40;99.90;;;;;;7368070;19;20038;-57
2023/09/21 08:50:17;;;;;;;5.93;3.45;;;18.40;99.90;;;;;;7367045;19;20395;-56
2023/09/21 08:52:44;;;;;;;6.70;3.40;;;18.30;99.90;;;;;;7368808;19;20412;-57
2023/09/21 08:55:16;;;;;;;4.97;3.47;;;18.20;99.90;;;;;;7372632;19;20078;-57
2023/09/21 08:58:05;;;;;;;4.97;3.13;;;18.30;99.90;;;;;;7372924;19;20015;-57
2023/09/21 09:01:02;;;;;;;5.38;3.28;;;18.20;99.90;;;;;;7371753;19;20029;-57
2023/09/21 09:03:28;;;;;;;5.93;3.20;;;18.20;99.90;;;;;;7373887;19;20058;-57
2023/09/21 09:05:58;;;;;;;7.10;3.88;;;18.20;99.90;;;;;;7372897;19;20029;-57
2023/09/21 09:08:46;;;;;;;6.35;3.60;;;18.20;99.90;;;;;;7371159;19;20488;-57
2023/09/21 09:11:40;;;;;;;6.18;4.03;;;18.20;99.90;;;;;;7367534;19;20912;-58
2023/09/21 09:14:26;;;;;;;8.40;3.58;;;18.20;99.90;;;;;;7366565;19;20018;-57
2023/09/21 09:16:53;;;;;;;7.43;4.00;;;18.10;99.90;;;;;;7372536;19;20396;-57
2023/09/21 09:19:20;;;;;;;9.30;4.13;;;18.00;99.90;;;;;;7374213;19;20039;-58
2023/09/21 09:21:48;;;;;;;9.45;4.55;;;18.00;99.90;;;;;;7369541;19;20691;-57
2023/09/21 09:24:34;;;;;;;6.13;3.78;;;18.00;99.90;;;;;;7371020;19;20022;-56
2023/09/21 09:27:00;;;;;;;6.00;4.28;;;17.90;99.90;;;;;;7365084;19;20066;-58
2023/09/21 09:29:27;;;;;;;5.70;3.63;;;17.90;99.90;;;;;;7369008;19;20026;-57
2023/09/21 09:31:54;;;;;;;8.32;4.07;;;17.80;99.90;;;;;;7368306;19;20033;-57
2023/09/21 09:34:22;;;;;;;6.82;3.92;;;17.80;99.90;;;;;;7368756;19;20397;-57
2023/09/21 09:37:12;;;;;;;8.10;4.10;;;17.80;99.90;;;;;;7363573;19;20025;-56
2023/09/21 09:39:39;;;;;;;7.70;4.25;;;17.70;99.90;;;;;;7364269;19;20441;-56
2023/09/21 09:42:06;;;;;;;9.23;4.50;;;17.60;99.90;;;;;;7368112;19;20022;-57
2023/09/21 09:44:38;;;;;;;9.43;4.55;;;17.70;99.90;;;;;;7370632;19;20046;-58
2023/09/21 09:47:09;;;;;;;6.75;3.95;;;17.60;99.90;;;;;;7367416;19;20050;-57
2023/09/21 09:49:56;;;;;;;7.45;5.40;;;17.60;99.90;;;;;;7367801;19;20500;-57
2023/09/21 09:52:24;;;;;;;6.82;4.85;;;17.60;99.90;;;;;;7368206;19;20018;-57
2023/09/21 09:54:52;;;;;;;7.68;5.57;;;17.60;99.90;;;;;;7370622;19;20014;-57
2023/09/21 09:57:41;;;;;;;7.90;5.68;;;17.60;99.90;;;;;;7364876;19;20052;-58
2023/09/21 10:00:15;;;;;;;7.95;4.93;;;17.40;99.90;;;;;;7367658;19;20103;-58
2023/09/21 10:03:03;;;;;;;9.02;5.50;;;17.40;99.90;;;;;;7369093;19;20032;-58
2023/09/21 10:05:50;;;;;;;7.25;5.40;;;17.20;99.90;;;;;;7368275;19;20033;-58
2023/09/21 10:08:17;;;;;;;8.88;5.43;;;17.10;99.90;;;;;;7368070;19;20015;-57
2023/09/21 10:10:51;;;;;;;7.20;5.47;;;17.10;99.90;;;;;;7365265;19;20022;-57
2023/09/21 10:13:53;;;;;;;5.13;3.20;;;17.10;99.90;;;;;;7363493;19;20027;-57
2023/09/21 10:16:48;;;;;;;3.95;2.20;;;17.00;99.90;;;;;;7363858;19;20093;-57
2023/09/21 10:19:43;;;;;;;2.38;1.27;;;16.80;99.90;;;;;;7364452;19;20014;-57
2023/09/21 10:22:32;;;;;;;3.28;1.27;;;16.60;99.90;;;;;;7368149;19;20021;-56
2023/09/21 10:24:58;;;;;;;2.00;1.00;;;16.60;99.90;;;;;;7364421;19;20022;-59
2023/09/21 10:27:28;;;;;;;1.67;1.02;;;16.50;99.90;;;;;;7364469;19;20081;-57
2023/09/21 10:30:06;;;;;;;1.70;0.90;;;16.40;99.90;;;;;;7367767;19;20019;-58
2023/09/21 10:32:49;;;;;;;2.75;1.10;;;16.40;99.90;;;;;;7363982;19;20014;-57
2023/09/21 10:35:23;;;;;;;2.17;1.10;;;16.40;99.90;;;;;;7365825;19;20048;-57
2023/09/21 10:38:13;;;;;;;2.35;1.30;;;16.50;99.90;;;;;;7366072;19;20025;-57
2023/09/21 10:41:32;;;;;;;5.93;3.22;;;16.40;99.90;;;;;;7367947;19;20078;-61
2023/09/21 10:44:52;;;;;;;1.75;1.10;;;16.40;99.90;;;;;;7367362;19;20412;-58
2023/09/21 10:47:30;;;;;;;3.97;1.35;;;16.40;99.90;;;;;;7368688;19;20018;-58
2023/09/21 10:49:59;;;;;;;3.28;1.38;;;16.50;99.90;;;;;;7374683;19;20022;-57
2023/09/21 10:52:27;;;;;;;1.88;1.50;;;16.50;99.90;;;;;;7379799;19;20018;-57
2023/09/21 10:54:55;;;;;;;3.60;1.40;;;16.60;99.90;;;;;;7378559;19;20086;-57
2023/09/21 10:57:42;;;;;;;3.90;1.00;;;16.70;99.90;;;;;;7377656;19;20650;-57
2023/09/21 11:00:29;;;;;;;1.55;0.80;;;16.70;99.90;;;;;;7377810;19;20067;-58
2023/09/21 11:02:57;;;;;;;2.80;0.88;;;16.60;99.90;;;;;;7381948;19;20573;-58
2023/09/21 11:05:44;;;;;;;2.05;0.90;;;16.60;99.90;;;;;;7378368;19;20014;-58
2023/09/21 11:08:31;;;;;;;2.05;1.10;;;16.50;99.90;;;;;;7376592;19;20082;-58
2023/09/21 11:10:57;;;;;;;1.30;0.70;;;16.50;99.90;;;;;;7379787;19;20014;-58
2023/09/21 11:13:24;;;;;;;1.65;0.82;;;16.50;99.90;;;;;;7376849;19;20027;-58
2023/09/21 11:15:54;;;;;;;1.52;0.80;;;16.60;99.90;;;;;;7378903;19;20015;-59
2023/09/21 11:18:40;;;;;;;1.98;0.90;;;16.60;99.90;;;;;;7377159;19;20370;-58
2023/09/21 11:21:15;;;;;;;2.33;1.20;;;16.70;99.90;;;;;;7379496;19;20024;-59
2023/09/21 11:23:44;;;;;;;2.67;0.90;;;16.70;99.90;;;;;;7376842;19;20022;-58
2023/09/21 11:26:14;;;;;;;2.95;0.98;;;16.60;99.90;;;;;;7379032;19;20015;-61
2023/09/21 11:29:02;;;;;;;2.05;1.13;;;16.60;99.90;;;;;;7377733;19;20014;-58
2023/09/21 11:31:30;;;;;;;3.75;1.20;;;16.50;99.90;;;;;;7373652;19;20015;-59
2023/09/21 11:34:05;;;;;;;2.75;1.30;;;16.60;99.90;;;;;;7378933;19;20041;-58
2023/09/21 11:36:55;;;;;;;2.17;0.90;;;16.70;99.90;;;;;;7378405;19;20014;-69
2023/09/21 11:39:28;;;;;;;2.10;0.80;;;16.70;99.90;;;;;;7377707;19;20019;-58
2023/09/21 11:41:56;;;;;;;1.83;1.00;;;16.80;99.90;;;;;;7379041;19;20014;-69
2023/09/21 11:44:29;;;;;;;1.27;0.52;;;16.80;99.90;;;;;;7375510;19;20023;-69
2023/09/21 11:47:01;;;;;;;1.02;0.57;;;16.80;99.90;;;;;;7379233;19;20081;-60
2023/09/21 11:49:41;;;;;;;3.55;1.20;;;16.80;99.90;;;;;;7375828;19;20463;-57
2023/09/21 11:52:09;;;;;;;1.17;0.68;;;16.80;99.90;;;;;;7375241;19;20033;-58
2023/09/21 11:54:38;;;;;;;2.13;0.73;;;16.80;99.90;;;;;;7376300;19;20018;-57
2023/09/21 11:57:09;;;;;;;2.35;0.70;;;16.90;99.90;;;;;;7379920;19;20024;-60
2023/09/21 11:59:39;;;;;;;3.30;1.38;;;16.90;99.90;;;;;;7378121;19;20503;-58
2023/09/21 12:02:09;;;;;;;1.27;0.80;;;16.90;99.90;;;;;;7380353;19;20010;-58
2023/09/21 12:04:55;;;;;;;1.98;0.60;;;16.90;99.90;;;;;;7380306;19;20047;-58
2023/09/21 12:07:21;;;;;;;1.17;0.68;;;16.80;99.90;;;;;;7378695;19;20041;-58
2023/09/21 12:09:49;;;;;;;1.35;0.80;;;16.70;99.90;;;;;;7378090;19;20019;-58
2023/09/21 12:12:37;;;;;;;0.90;0.60;;;16.50;99.90;;;;;;7372762;19;20014;-57
2023/09/21 12:15:05;;;;;;;2.15;0.70;;;16.40;99.90;;;;;;7377146;19;20006;-58
2023/09/21 12:17:32;;;;;;;2.25;0.80;;;16.30;99.90;;;;;;7373785;19;20107;-59
2023/09/21 12:20:00;;;;;;;1.95;0.80;;;16.30;99.90;;;;;;7375626;19;20014;-58
2023/09/21 12:22:47;;;;;;;1.55;0.80;;;16.30;99.90;;;;;;7375243;19;20103;-58
2023/09/21 12:25:16;;;;;;;1.17;0.60;;;16.20;99.90;;;;;;7375748;19;20047;-57
2023/09/21 12:28:03;;;;;;;2.03;0.90;;;16.10;99.90;;;;;;7376760;19;20576;-58
2023/09/21 12:30:51;;;;;;;2.00;0.70;;;16.10;99.90;;;;;;7375090;19;20895;-58
2023/09/21 12:33:38;;;;;;;0.93;0.80;;;16.00;99.90;;;;;;7373635;19;20011;-58
2023/09/21 12:36:05;;;;;;;2.10;0.82;;;16.00;99.90;;;;;;7376345;19;20022;-57
2023/09/21 12:38:32;;;;;;;1.88;0.95;;;16.00;99.90;;;;;;7371830;19;20102;-58
2023/09/21 12:40:59;;;;;;;1.48;0.98;;;15.90;99.90;;;;;;7375897;19;20038;-58
2023/09/21 12:43:28;;;;;;;1.83;0.75;;;15.90;99.90;;;;;;7375947;19;20018;-58
2023/09/21 12:45:54;;;;;;;1.77;0.90;;;15.90;99.90;;;;;;7377638;19;20021;-58
2023/09/21 12:48:20;;;;;;;1.77;0.90;;;16.00;99.90;;;;;;7373061;19;20030;-57
2023/09/21 12:50:46;;;;;;;1.25;0.90;;;16.00;99.90;;;;;;7376456;19;20375;-58
2023/09/21 12:53:13;;;;;;;2.38;1.05;;;16.00;99.90;;;;;;7377338;19;20387;-58
2023/09/21 12:55:44;;;;;;;1.63;1.00;;;16.20;99.90;;;;;;7375821;19;20351;-58
2023/09/21 12:58:31;;;;;;;1.52;0.90;;;16.30;99.90;;;;;;7373429;19;20505;-58
2023/09/21 13:00:57;;;;;;;2.10;0.88;;;16.50;99.90;;;;;;7374517;19;20014;-58
2023/09/21 13:03:24;;;;;;;2.88;1.00;;;16.60;99.90;;;;;;7378306;19;20079;-59
2023/09/21 13:06:13;;;;;;;2.70;1.30;;;16.70;99.90;;;;;;7377601;19;20022;-59
2023/09/21 13:08:40;;;;;;;1.80;1.00;;;16.70;99.90;;;;;;7376507;19;20032;-59
2023/09/21 13:11:26;;;;;;;2.40;1.02;;;16.70;99.90;;;;;;7372929;19;20018;-57
2023/09/21 13:13:53;;;;;;;2.15;1.20;;;16.80;99.90;;;;;;7376116;19;20015;-57
2023/09/21 13:16:19;;;;;;;2.13;1.00;;;16.80;99.90;;;;;;7376251;19;20020;-58
2023/09/21 13:18:45;;;;;;;2.25;1.00;;;16.90;99.90;;;;;;7373315;19;20325;-57
2023/09/21 13:21:31;;;;;;;2.75;1.10;;;16.80;99.90;;;;;;7374361;19;20490;-57
2023/09/21 13:23:58;;;;;;;2.83;1.00;;;16.70;99.90;;;;;;7376338;19;20015;-57
2023/09/21 13:26:24;;;;;;;1.77;0.75;;;16.70;99.90;;;;;;7374739;19;20018;-57
2023/09/21 13:29:11;;;;;;;1.70;0.90;;;16.60;99.90;;;;;;7372061;19;20014;-68